createdAt,value
2022-10-23T00:04:25.334Z,5.77
2022-10-23T00:09:47.782Z,6.07
2022-10-23T00:15:10.666Z,5.40
2022-10-23T00:20:33.000Z,6.00
2022-10-23T00:25:55.302Z,5.90
2022-10-23T00:31:18.440Z,6.30
2022-10-23T00:36:41.013Z,4.77
2022-10-23T00:42:04.205Z,5.70
2022-10-23T00:47:26.381Z,5.63
2022-10-23T00:52:52.936Z,5.77
2022-10-23T00:58:18.248Z,5.90
2022-10-23T01:03:41.371Z,5.60
2022-10-23T01:09:29.605Z,6.83
2022-10-23T01:15:13.511Z,5.43
2022-10-23T01:20:50.761Z,6.23
2022-10-23T01:26:32.346Z,6.03
2022-10-23T01:32:06.114Z,6.77
2022-10-23T01:37:39.685Z,6.27
2022-10-23T01:43:09.558Z,6.33
2022-10-23T01:48:35.352Z,6.17
2022-10-23T01:54:00.804Z,5.63
2022-10-23T01:59:29.704Z,5.93
2022-10-23T02:05:12.410Z,4.97
2022-10-23T02:10:47.089Z,5.43
2022-10-23T02:16:31.515Z,5.37
2022-10-23T02:22:01.174Z,5.40
2022-10-23T02:27:35.445Z,5.13
2022-10-23T02:32:58.865Z,4.97
2022-10-23T02:38:34.720Z,5.00
2022-10-23T02:43:59.816Z,4.93
2022-10-23T02:49:37.972Z,5.10
2022-10-23T02:55:24.515Z,5.07
2022-10-23T03:00:52.554Z,5.50
2022-10-23T03:06:16.502Z,5.17
2022-10-23T03:11:39.112Z,5.43
2022-10-23T03:17:01.739Z,5.63
2022-10-23T03:22:24.597Z,5.20
2022-10-23T03:27:47.206Z,4.93
2022-10-23T03:33:11.903Z,5.20
2022-10-23T03:38:34.609Z,5.23
2022-10-23T03:43:58.399Z,5.73
2022-10-23T03:49:20.950Z,5.20
2022-10-23T03:54:43.227Z,5.60
2022-10-23T04:00:07.834Z,5.27
2022-10-23T04:05:39.257Z,5.90
2022-10-23T04:11:01.990Z,4.83
2022-10-23T04:16:32.775Z,5.33
2022-10-23T04:21:57.189Z,5.00
2022-10-23T04:27:19.834Z,5.33
2022-10-23T04:32:42.898Z,4.67
2022-10-23T04:38:05.496Z,5.37
2022-10-23T04:43:27.908Z,4.63
2022-10-23T04:48:50.485Z,5.00
2022-10-23T04:54:43.423Z,5.00
2022-10-23T05:00:18.558Z,5.60
2022-10-23T05:05:47.994Z,5.43
2022-10-23T05:11:29.243Z,5.63
2022-10-23T05:16:51.992Z,4.80
2022-10-23T05:22:15.615Z,5.60
2022-10-23T05:27:43.905Z,5.20
2022-10-23T05:33:10.170Z,5.03
2022-10-23T05:38:36.399Z,5.77
2022-10-23T05:44:06.350Z,4.60
2022-10-23T05:49:51.597Z,4.90
2022-10-23T05:55:33.181Z,4.40
2022-10-23T06:01:19.053Z,4.80
2022-10-23T06:06:55.691Z,4.67
2022-10-23T06:12:20.337Z,4.77
2022-10-23T06:17:44.769Z,5.40
2022-10-23T06:23:08.298Z,5.00
2022-10-23T06:28:53.332Z,5.43
2022-10-23T06:34:16.256Z,4.60
2022-10-23T06:39:40.559Z,5.30
2022-10-23T06:45:09.134Z,5.07
2022-10-23T06:50:43.000Z,7.27
2022-10-23T06:56:13.330Z,7.27
2022-10-23T07:01:36.399Z,6.63
2022-10-23T07:07:00.949Z,6.13
2022-10-23T07:12:31.379Z,5.50
2022-10-23T07:18:16.514Z,5.37
2022-10-23T07:24:07.980Z,4.13
2022-10-23T07:29:34.519Z,4.53
2022-10-23T07:34:58.151Z,4.40
2022-10-23T07:40:26.556Z,5.07
2022-10-23T07:45:53.178Z,6.60
2022-10-23T07:51:21.442Z,6.40
2022-10-23T07:56:50.904Z,7.27
2022-10-23T08:02:16.849Z,6.90
2022-10-23T08:07:40.796Z,6.37
2022-10-23T08:13:03.197Z,8.30
2022-10-23T08:19:01.079Z,7.80
2022-10-23T08:24:24.859Z,8.57
2022-10-23T08:29:47.575Z,8.57
2022-10-23T08:35:10.037Z,8.90
2022-10-23T08:40:32.995Z,7.37
2022-10-23T08:46:19.040Z,7.80
2022-10-23T08:52:10.376Z,8.40
2022-10-23T08:57:43.863Z,7.83
2022-10-23T09:03:06.338Z,7.80
2022-10-23T09:08:47.265Z,6.70
2022-10-23T09:14:26.749Z,7.93
2022-10-23T09:19:54.189Z,7.10
2022-10-23T09:25:30.007Z,6.33
2022-10-23T09:30:53.328Z,6.23
2022-10-23T09:36:21.262Z,6.07
2022-10-23T09:41:43.863Z,5.90
2022-10-23T09:47:06.296Z,6.10
2022-10-23T09:52:39.589Z,4.90
2022-10-23T09:58:01.926Z,4.57
2022-10-23T10:03:25.738Z,4.53
2022-10-23T10:09:17.866Z,3.80
2022-10-23T10:15:02.197Z,3.53
2022-10-23T10:20:42.926Z,3.00
2022-10-23T10:26:17.619Z,2.95
2022-10-23T10:31:49.409Z,2.70
2022-10-23T10:37:25.686Z,2.50
2022-10-23T10:43:06.637Z,2.72
2022-10-23T10:48:55.376Z,2.10
2022-10-23T10:54:57.979Z,2.22
2022-10-23T11:00:22.650Z,2.17
2022-10-23T11:05:49.239Z,2.17
2022-10-23T11:11:24.529Z,1.77
2022-10-23T11:16:55.848Z,1.70
2022-10-23T11:22:42.080Z,1.80
2022-10-23T11:28:29.680Z,1.85
2022-10-23T11:34:35.604Z,2.03
2022-10-23T11:40:03.255Z,1.85
2022-10-23T11:45:30.343Z,1.67
2022-10-23T11:50:59.159Z,2.05
2022-10-23T11:56:27.164Z,2.10
2022-10-23T12:01:53.708Z,1.95
2022-10-23T12:07:28.652Z,1.90
2022-10-23T12:13:00.993Z,1.83
2022-10-23T12:18:23.575Z,1.63
2022-10-23T12:23:54.795Z,1.38
2022-10-23T12:29:41.048Z,1.83
2022-10-23T12:35:19.484Z,2.00
2022-10-23T12:40:46.378Z,1.60
2022-10-23T12:46:17.625Z,1.50
2022-10-23T12:51:40.489Z,1.67
2022-10-23T12:57:02.959Z,1.50
2022-10-23T13:02:31.741Z,1.42
2022-10-23T13:07:54.614Z,1.38
2022-10-23T13:13:28.709Z,1.83
2022-10-23T13:18:52.169Z,1.63
2022-10-23T13:24:21.334Z,1.63
2022-10-23T13:29:43.647Z,1.98
2022-10-23T13:35:22.372Z,1.70
2022-10-23T13:40:56.599Z,1.52
2022-10-23T13:46:22.273Z,1.58
2022-10-23T13:51:51.690Z,1.98
2022-10-23T13:57:16.123Z,1.70
2022-10-23T14:02:38.686Z,1.65
2022-10-23T14:08:01.417Z,1.70
2022-10-23T14:13:23.571Z,2.00
2022-10-23T14:18:45.924Z,1.75
2022-10-23T14:24:08.954Z,1.63
2022-10-23T14:29:31.633Z,1.65
2022-10-23T14:34:54.754Z,2.03
2022-10-23T14:40:17.350Z,2.38
2022-10-23T14:45:39.937Z,2.85
2022-10-23T14:51:02.259Z,2.67
2022-10-23T14:56:24.411Z,3.15
2022-10-23T15:01:48.418Z,2.80
2022-10-23T15:07:11.203Z,2.67
2022-10-23T15:12:34.415Z,2.65
2022-10-23T15:17:57.271Z,2.38
2022-10-23T15:23:19.687Z,2.47
2022-10-23T15:28:41.732Z,2.67
2022-10-23T15:34:05.268Z,2.60
2022-10-23T15:39:33.816Z,2.80
2022-10-23T15:44:56.438Z,2.50
2022-10-23T15:50:18.820Z,2.90
2022-10-23T15:55:41.203Z,2.78
2022-10-23T16:01:06.610Z,2.90
2022-10-23T16:06:29.472Z,3.77
2022-10-23T16:11:51.891Z,2.80
2022-10-23T16:22:44.857Z,3.33
2022-10-23T16:28:07.439Z,3.13
2022-10-23T16:33:30.028Z,2.90
2022-10-23T16:38:52.329Z,3.27
2022-10-23T16:44:23.208Z,3.20
2022-10-23T16:49:56.185Z,3.77
2022-10-23T16:55:18.328Z,3.60
2022-10-23T17:00:40.688Z,3.50
2022-10-23T17:06:07.353Z,3.63
2022-10-23T17:11:35.955Z,3.10
2022-10-23T17:17:01.602Z,3.57
2022-10-23T17:22:23.883Z,3.73
2022-10-23T17:27:46.479Z,3.90
2022-10-23T17:33:08.588Z,3.87
2022-10-23T17:38:30.705Z,4.80
2022-10-23T17:43:57.292Z,4.10
2022-10-23T17:49:20.413Z,3.90
2022-10-23T17:54:43.065Z,4.20
2022-10-23T18:00:06.720Z,4.53
2022-10-23T18:05:34.779Z,4.43
2022-10-23T18:10:57.007Z,4.40
2022-10-23T18:16:20.349Z,4.20
2022-10-23T18:21:42.892Z,3.73
2022-10-23T18:27:05.166Z,3.70
2022-10-23T18:32:28.028Z,3.60
2022-10-23T18:37:50.651Z,3.40
2022-10-23T18:43:15.235Z,4.20
2022-10-23T18:48:43.613Z,3.27
2022-10-23T18:54:09.340Z,3.50
2022-10-23T18:59:31.804Z,3.47
2022-10-23T19:04:54.290Z,3.80
2022-10-23T19:10:19.524Z,3.20
2022-10-23T19:15:42.219Z,3.20
2022-10-23T19:21:06.152Z,3.70
2022-10-23T19:26:30.318Z,3.47
2022-10-23T19:31:53.145Z,3.90
2022-10-23T19:37:16.619Z,4.20
2022-10-23T19:42:41.244Z,3.73
2022-10-23T19:48:04.028Z,3.57
2022-10-23T19:53:26.544Z,3.73
2022-10-23T19:58:50.097Z,3.80
2022-10-23T20:04:12.456Z,4.40
2022-10-23T20:09:34.655Z,4.60
2022-10-23T20:14:56.923Z,4.00
2022-10-23T20:20:20.694Z,4.20
2022-10-23T20:25:43.360Z,4.70
2022-10-23T20:31:10.145Z,4.23
2022-10-23T20:36:35.270Z,3.90
2022-10-23T20:41:57.664Z,4.20
2022-10-23T20:47:19.606Z,5.13
2022-10-23T20:52:42.015Z,4.17
2022-10-23T20:58:04.205Z,5.50
2022-10-23T21:03:26.629Z,5.30
2022-10-23T21:08:49.285Z,4.83
2022-10-23T21:14:12.136Z,5.03
2022-10-23T21:19:34.895Z,5.20
2022-10-23T21:24:58.511Z,5.60
2022-10-23T21:30:20.589Z,5.13
2022-10-23T21:35:52.297Z,6.07
2022-10-23T21:41:24.596Z,6.33
2022-10-23T21:46:47.165Z,5.60
2022-10-23T21:52:09.452Z,6.13
2022-10-23T21:57:34.799Z,6.40
2022-10-23T22:02:57.077Z,5.87
2022-10-23T22:08:19.401Z,5.00
2022-10-23T22:13:43.244Z,5.93
2022-10-23T22:19:05.759Z,5.43
2022-10-23T22:24:28.038Z,5.87
2022-10-23T22:29:50.394Z,5.53
2022-10-23T22:35:12.760Z,5.83
2022-10-23T22:40:39.446Z,5.73
2022-10-23T22:46:05.780Z,5.43
2022-10-23T22:51:28.918Z,5.53
2022-10-23T22:56:51.574Z,6.23
2022-10-23T23:02:14.029Z,5.53
2022-10-23T23:07:36.185Z,6.10
2022-10-23T23:12:58.424Z,6.53
2022-10-23T23:18:21.540Z,5.87
2022-10-23T23:23:44.211Z,6.10
2022-10-23T23:29:06.503Z,5.63
2022-10-23T23:34:29.395Z,6.77
2022-10-23T23:39:51.844Z,6.30
2022-10-23T23:45:15.212Z,5.77
2022-10-23T23:50:38.359Z,6.60
2022-10-23T23:56:00.873Z,6.43
